sensor_id;sensor_type;location;lat;lon;timestamp;P1;durP1;ratioP1;P2;durP2;ratioP2
72728;SDS011;60843;52.062;4.508;2023-09-08T00:02:23;15.90;;;9.52;;
72728;SDS011;60843;52.062;4.508;2023-09-08T00:04:50;18.05;;;10.13;;
72728;SDS011;60843;52.062;4.508;2023-09-08T00:07:15;13.32;;;9.70;;
72728;SDS011;60843;52.062;4.508;2023-09-08T00:09:41;16.65;;;9.90;;
72728;SDS011;60843;52.062;4.508;2023-09-08T00:12:06;17.65;;;10.48;;
72728;SDS011;60843;52.062;4.508;2023-09-08T00:14:32;16.05;;;9.65;;
72728;SDS011;60843;52.062;4.508;2023-09-08T00:16:58;15.85;;;9.98;;
72728;SDS011;60843;52.062;4.508;2023-09-08T00:19:24;16.83;;;10.43;;
72728;SDS011;60843;52.062;4.508;2023-09-08T00:21:50;14.45;;;8.88;;
72728;SDS011;60843;52.062;4.508;2023-09-08T00:24:15;14.38;;;9.60;;
72728;SDS011;60843;52.062;4.508;2023-09-08T00:26:42;17.40;;;9.65;;
72728;SDS011;60843;52.062;4.508;2023-09-08T00:29:08;15.88;;;9.63;;
72728;SDS011;60843;52.062;4.508;2023-09-08T00:31:33;18.58;;;9.90;;
72728;SDS011;60843;52.062;4.508;2023-09-08T00:33:59;15.73;;;9.48;;
72728;SDS011;60843;52.062;4.508;2023-09-08T00:36:25;16.85;;;9.68;;
72728;SDS011;60843;52.062;4.508;2023-09-08T00:38:50;14.63;;;8.73;;
72728;SDS011;60843;52.062;4.508;2023-09-08T00:41:16;15.27;;;8.38;;
72728;SDS011;60843;52.062;4.508;2023-09-08T00:43:41;15.82;;;10.00;;
72728;SDS011;60843;52.062;4.508;2023-09-08T00:46:07;17.58;;;10.15;;
72728;SDS011;60843;52.062;4.508;2023-09-08T00:48:33;13.05;;;8.38;;
72728;SDS011;60843;52.062;4.508;2023-09-08T00:51:00;17.98;;;8.68;;
72728;SDS011;60843;52.062;4.508;2023-09-08T00:53:26;13.60;;;9.45;;
72728;SDS011;60843;52.062;4.508;2023-09-08T00:55:51;14.35;;;8.93;;
72728;SDS011;60843;52.062;4.508;2023-09-08T00:58:17;15.48;;;8.98;;
72728;SDS011;60843;52.062;4.508;2023-09-08T01:00:43;17.20;;;9.57;;
72728;SDS011;60843;52.062;4.508;2023-09-08T01:03:10;15.23;;;9.55;;
72728;SDS011;60843;52.062;4.508;2023-09-08T01:05:36;15.32;;;9.05;;
72728;SDS011;60843;52.062;4.508;2023-09-08T01:08:02;13.57;;;8.98;;
72728;SDS011;60843;52.062;4.508;2023-09-08T01:10:28;15.90;;;9.10;;
72728;SDS011;60843;52.062;4.508;2023-09-08T01:12:54;13.85;;;8.82;;
72728;SDS011;60843;52.062;4.508;2023-09-08T01:15:20;14.10;;;9.25;;
72728;SDS011;60843;52.062;4.508;2023-09-08T01:17:46;13.35;;;9.18;;
72728;SDS011;60843;52.062;4.508;2023-09-08T01:26:10;18.67;;;9.98;;
72728;SDS011;60843;52.062;4.508;2023-09-08T01:28:42;19.98;;;10.30;;
72728;SDS011;60843;52.062;4.508;2023-09-08T01:31:07;15.40;;;10.07;;
72728;SDS011;60843;52.062;4.508;2023-09-08T01:33:33;15.82;;;10.10;;
72728;SDS011;60843;52.062;4.508;2023-09-08T01:36:01;17.50;;;9.82;;
72728;SDS011;60843;52.062;4.508;2023-09-08T01:38:27;14.32;;;9.77;;
72728;SDS011;60843;52.062;4.508;2023-09-08T01:40:52;19.15;;;10.15;;
72728;SDS011;60843;52.062;4.508;2023-09-08T01:43:18;13.75;;;8.85;;
72728;SDS011;60843;52.062;4.508;2023-09-08T01:45:44;17.85;;;9.60;;
72728;SDS011;60843;52.062;4.508;2023-09-08T01:48:09;15.00;;;9.65;;
72728;SDS011;60843;52.062;4.508;2023-09-08T01:50:37;18.35;;;10.10;;
72728;SDS011;60843;52.062;4.508;2023-09-08T01:53:03;15.15;;;10.52;;
72728;SDS011;60843;52.062;4.508;2023-09-08T01:55:28;18.45;;;10.80;;
72728;SDS011;60843;52.062;4.508;2023-09-08T01:57:54;16.48;;;10.25;;
72728;SDS011;60843;52.062;4.508;2023-09-08T02:00:21;17.75;;;9.98;;
72728;SDS011;60843;52.062;4.508;2023-09-08T02:02:46;16.90;;;10.20;;
72728;SDS011;60843;52.062;4.508;2023-09-08T02:05:12;18.02;;;10.95;;
72728;SDS011;60843;52.062;4.508;2023-09-08T02:07:37;17.63;;;9.85;;
72728;SDS011;60843;52.062;4.508;2023-09-08T02:10:03;16.65;;;10.30;;
72728;SDS011;60843;52.062;4.508;2023-09-08T02:12:29;17.75;;;10.63;;
72728;SDS011;60843;52.062;4.508;2023-09-08T02:14:54;17.20;;;10.25;;
72728;SDS011;60843;52.062;4.508;2023-09-08T02:17:20;20.25;;;11.32;;
72728;SDS011;60843;52.062;4.508;2023-09-08T02:19:45;18.65;;;10.65;;
72728;SDS011;60843;52.062;4.508;2023-09-08T02:22:11;19.13;;;10.63;;
72728;SDS011;60843;52.062;4.508;2023-09-08T02:24:37;17.30;;;10.55;;
72728;SDS011;60843;52.062;4.508;2023-09-08T02:27:02;20.23;;;11.38;;
72728;SDS011;60843;52.062;4.508;2023-09-08T02:29:28;17.33;;;11.18;;
72728;SDS011;60843;52.062;4.508;2023-09-08T02:31:56;21.52;;;12.07;;
72728;SDS011;60843;52.062;4.508;2023-09-08T02:34:22;18.63;;;11.23;;
72728;SDS011;60843;52.062;4.508;2023-09-08T02:36:47;17.48;;;10.93;;
72728;SDS011;60843;52.062;4.508;2023-09-08T02:39:13;20.27;;;12.63;;
72728;SDS011;60843;52.062;4.508;2023-09-08T02:41:39;22.13;;;13.45;;
72728;SDS011;60843;52.062;4.508;2023-09-08T02:44:04;21.13;;;11.90;;
72728;SDS011;60843;52.062;4.508;2023-09-08T02:46:33;22.58;;;11.93;;
72728;SDS011;60843;52.062;4.508;2023-09-08T02:48:59;20.90;;;12.07;;
72728;SDS011;60843;52.062;4.508;2023-09-08T02:51:24;20.42;;;11.95;;
72728;SDS011;60843;52.062;4.508;2023-09-08T02:53:50;21.02;;;11.55;;
72728;SDS011;60843;52.062;4.508;2023-09-08T02:56:15;21.23;;;12.20;;
72728;SDS011;60843;52.062;4.508;2023-09-08T02:58:41;20.58;;;12.43;;
72728;SDS011;60843;52.062;4.508;2023-09-08T03:01:15;20.20;;;11.55;;
72728;SDS011;60843;52.062;4.508;2023-09-08T03:03:45;19.58;;;12.43;;
72728;SDS011;60843;52.062;4.508;2023-09-08T03:06:11;19.90;;;12.20;;
72728;SDS011;60843;52.062;4.508;2023-09-08T03:08:38;22.67;;;11.88;;
72728;SDS011;60843;52.062;4.508;2023-09-08T03:11:03;26.35;;;12.30;;
72728;SDS011;60843;52.062;4.508;2023-09-08T03:13:30;20.50;;;12.07;;
72728;SDS011;60843;52.062;4.508;2023-09-08T03:15:57;21.00;;;11.60;;
72728;SDS011;60843;52.062;4.508;2023-09-08T03:18:27;20.42;;;13.05;;
72728;SDS011;60843;52.062;4.508;2023-09-08T03:20:53;23.17;;;12.55;;
72728;SDS011;60843;52.062;4.508;2023-09-08T03:23:19;20.20;;;12.23;;
72728;SDS011;60843;52.062;4.508;2023-09-08T03:25:44;21.45;;;12.95;;
72728;SDS011;60843;52.062;4.508;2023-09-08T03:28:10;23.65;;;13.07;;
72728;SDS011;60843;52.062;4.508;2023-09-08T03:30:36;21.27;;;13.18;;
72728;SDS011;60843;52.062;4.508;2023-09-08T03:33:02;21.20;;;11.93;;
72728;SDS011;60843;52.062;4.508;2023-09-08T03:35:27;25.55;;;13.40;;
72728;SDS011;60843;52.062;4.508;2023-09-08T03:37:53;21.73;;;12.40;;
72728;SDS011;60843;52.062;4.508;2023-09-08T03:40:18;18.60;;;12.20;;
72728;SDS011;60843;52.062;4.508;2023-09-08T03:42:44;19.20;;;11.80;;
72728;SDS011;60843;52.062;4.508;2023-09-08T03:45:09;20.70;;;11.80;;
72728;SDS011;60843;52.062;4.508;2023-09-08T03:47:35;21.15;;;12.27;;
72728;SDS011;60843;52.062;4.508;2023-09-08T03:50:01;21.80;;;12.30;;
72728;SDS011;60843;52.062;4.508;2023-09-08T03:52:27;19.83;;;12.00;;
72728;SDS011;60843;52.062;4.508;2023-09-08T03:54:52;20.48;;;12.82;;
72728;SDS011;60843;52.062;4.508;2023-09-08T03:57:18;20.52;;;12.18;;
72728;SDS011;60843;52.062;4.508;2023-09-08T03:59:44;19.25;;;11.57;;
72728;SDS011;60843;52.062;4.508;2023-09-08T04:02:09;23.55;;;12.50;;
72728;SDS011;60843;52.062;4.508;2023-09-08T04:04:35;21.65;;;11.90;;
72728;SDS011;60843;52.062;4.508;2023-09-08T04:07:03;20.08;;;11.70;;
72728;SDS011;60843;52.062;4.508;2023-09-08T04:09:29;19.55;;;12.35;;
72728;SDS011;60843;52.062;4.508;2023-09-08T04:11:56;20.73;;;11.80;;
72728;SDS011;60843;52.062;4.508;2023-09-08T04:14:22;19.98;;;11.90;;
72728;SDS011;60843;52.062;4.508;2023-09-08T04:16:52;19.58;;;11.82;;
72728;SDS011;60843;52.062;4.508;2023-09-08T04:19:18;19.05;;;11.38;;
72728;SDS011;60843;52.062;4.508;2023-09-08T04:21:43;17.88;;;11.43;;
72728;SDS011;60843;52.062;4.508;2023-09-08T04:24:09;22.48;;;11.80;;
72728;SDS011;60843;52.062;4.508;2023-09-08T04:26:36;17.10;;;11.07;;
72728;SDS011;60843;52.062;4.508;2023-09-08T04:29:01;17.35;;;11.45;;
72728;SDS011;60843;52.062;4.508;2023-09-08T04:31:27;23.35;;;12.10;;
72728;SDS011;60843;52.062;4.508;2023-09-08T04:33:55;21.00;;;11.10;;
72728;SDS011;60843;52.062;4.508;2023-09-08T04:36:24;17.13;;;10.75;;
72728;SDS011;60843;52.062;4.508;2023-09-08T04:38:50;18.95;;;11.90;;
72728;SDS011;60843;52.062;4.508;2023-09-08T04:41:15;16.92;;;11.00;;
72728;SDS011;60843;52.062;4.508;2023-09-08T04:43:41;19.13;;;11.35;;
72728;SDS011;60843;52.062;4.508;2023-09-08T04:46:06;19.00;;;11.75;;
72728;SDS011;60843;52.062;4.508;2023-09-08T04:48:33;17.50;;;10.07;;
72728;SDS011;60843;52.062;4.508;2023-09-08T04:50:59;18.92;;;10.85;;
72728;SDS011;60843;52.062;4.508;2023-09-08T04:53:25;17.40;;;10.52;;
72728;SDS011;60843;52.062;4.508;2023-09-08T04:55:50;17.80;;;10.77;;
72728;SDS011;60843;52.062;4.508;2023-09-08T04:58:17;19.83;;;11.00;;
72728;SDS011;60843;52.062;4.508;2023-09-08T05:00:42;21.00;;;11.18;;
72728;SDS011;60843;52.062;4.508;2023-09-08T05:03:08;16.75;;;10.73;;
72728;SDS011;60843;52.062;4.508;2023-09-08T05:05:34;22.05;;;11.45;;
72728;SDS011;60843;52.062;4.508;2023-09-08T05:07:59;17.45;;;11.15;;
72728;SDS011;60843;52.062;4.508;2023-09-08T05:10:25;17.77;;;10.50;;
72728;SDS011;60843;52.062;4.508;2023-09-08T05:12:51;20.13;;;10.60;;
72728;SDS011;60843;52.062;4.508;2023-09-08T05:15:16;18.05;;;10.80;;
72728;SDS011;60843;52.062;4.508;2023-09-08T05:17:42;20.92;;;11.48;;
72728;SDS011;60843;52.062;4.508;2023-09-08T05:20:08;19.75;;;11.65;;
72728;SDS011;60843;52.062;4.508;2023-09-08T05:22:34;18.50;;;11.60;;
72728;SDS011;60843;52.062;4.508;2023-09-08T05:25:00;20.60;;;11.75;;
72728;SDS011;60843;52.062;4.508;2023-09-08T05:27:25;18.85;;;10.55;;
72728;SDS011;60843;52.062;4.508;2023-09-08T05:29:51;22.10;;;11.35;;
72728;SDS011;60843;52.062;4.508;2023-09-08T05:32:17;24.55;;;11.90;;
72728;SDS011;60843;52.062;4.508;2023-09-08T05:34:42;20.88;;;11.80;;
72728;SDS011;60843;52.062;4.508;2023-09-08T05:37:08;18.70;;;10.65;;
72728;SDS011;60843;52.062;4.508;2023-09-08T05:39:33;20.17;;;11.50;;
72728;SDS011;60843;52.062;4.508;2023-09-08T05:41:59;18.90;;;11.10;;
72728;SDS011;60843;52.062;4.508;2023-09-08T05:44:25;20.45;;;10.65;;
72728;SDS011;60843;52.062;4.508;2023-09-08T05:46:51;19.08;;;11.48;;
72728;SDS011;60843;52.062;4.508;2023-09-08T05:49:16;19.23;;;10.65;;
72728;SDS011;60843;52.062;4.508;2023-09-08T05:51:43;17.60;;;10.45;;
72728;SDS011;60843;52.062;4.508;2023-09-08T05:54:09;21.65;;;11.52;;
72728;SDS011;60843;52.062;4.508;2023-09-08T05:56:36;17.67;;;10.20;;
72728;SDS011;60843;52.062;4.508;2023-09-08T05:59:02;16.77;;;10.40;;
72728;SDS011;60843;52.062;4.508;2023-09-08T06:01:27;18.90;;;10.93;;
72728;SDS011;60843;52.062;4.508;2023-09-08T06:03:53;19.83;;;10.43;;
72728;SDS011;60843;52.062;4.508;2023-09-08T06:06:22;18.83;;;11.20;;
72728;SDS011;60843;52.062;4.508;2023-09-08T06:08:48;19.35;;;10.80;;
72728;SDS011;60843;52.062;4.508;2023-09-08T06:11:14;20.88;;;11.65;;
72728;SDS011;60843;52.062;4.508;2023-09-08T06:13:39;20.10;;;11.30;;
72728;SDS011;60843;52.062;4.508;2023-09-08T06:16:05;19.65;;;10.82;;
72728;SDS011;60843;52.062;4.508;2023-09-08T06:18:31;20.25;;;10.85;;
72728;SDS011;60843;52.062;4.508;2023-09-08T06:20:57;18.02;;;11.48;;
72728;SDS011;60843;52.062;4.508;2023-09-08T06:23:22;19.80;;;10.95;;
72728;SDS011;60843;52.062;4.508;2023-09-08T06:25:55;19.17;;;10.95;;
72728;SDS011;60843;52.062;4.508;2023-09-08T06:28:24;23.52;;;11.10;;
72728;SDS011;60843;52.062;4.508;2023-09-08T06:30:50;20.52;;;10.57;;
72728;SDS011;60843;52.062;4.508;2023-09-08T06:33:16;18.58;;;10.80;;
72728;SDS011;60843;52.062;4.508;2023-09-08T06:35:41;17.15;;;10.25;;
72728;SDS011;60843;52.062;4.508;2023-09-08T06:38:07;18.10;;;10.18;;
72728;SDS011;60843;52.062;4.508;2023-09-08T06:40:32;18.92;;;9.70;;
72728;SDS011;60843;52.062;4.508;2023-09-08T06:42:58;15.32;;;9.63;;
72728;SDS011;60843;52.062;4.508;2023-09-08T06:45:23;14.77;;;9.48;;
72728;SDS011;60843;52.062;4.508;2023-09-08T06:47:49;15.40;;;9.35;;
72728;SDS011;60843;52.062;4.508;2023-09-08T06:50:17;16.20;;;9.23;;
72728;SDS011;60843;52.062;4.508;2023-09-08T06:52:42;15.05;;;9.18;;
72728;SDS011;60843;52.062;4.508;2023-09-08T06:55:08;14.70;;;9.50;;
72728;SDS011;60843;52.062;4.508;2023-09-08T06:57:34;16.95;;;8.82;;
72728;SDS011;60843;52.062;4.508;2023-09-08T07:00:00;16.38;;;10.45;;
72728;SDS011;60843;52.062;4.508;2023-09-08T07:02:25;15.00;;;9.15;;
72728;SDS011;60843;52.062;4.508;2023-09-08T07:04:51;16.60;;;9.48;;
72728;SDS011;60843;52.062;4.508;2023-09-08T07:07:16;15.00;;;9.82;;
72728;SDS011;60843;52.062;4.508;2023-09-08T07:09:43;16.70;;;10.18;;
72728;SDS011;60843;52.062;4.508;2023-09-08T07:12:09;16.67;;;9.95;;
72728;SDS011;60843;52.062;4.508;2023-09-08T07:14:34;18.85;;;11.80;;
72728;SDS011;60843;52.062;4.508;2023-09-08T07:19:32;19.75;;;11.40;;
72728;SDS011;60843;52.062;4.508;2023-09-08T07:21:57;17.98;;;10.82;;
72728;SDS011;60843;52.062;4.508;2023-09-08T07:24:23;18.58;;;10.40;;
72728;SDS011;60843;52.062;4.508;2023-09-08T07:26:49;16.35;;;9.75;;
72728;SDS011;60843;52.062;4.508;2023-09-08T07:29:15;17.15;;;10.48;;
72728;SDS011;60843;52.062;4.508;2023-09-08T07:31:41;16.55;;;10.25;;
72728;SDS011;60843;52.062;4.508;2023-09-08T07:34:07;17.15;;;10.10;;
72728;SDS011;60843;52.062;4.508;2023-09-08T07:36:32;18.20;;;10.98;;
72728;SDS011;60843;52.062;4.508;2023-09-08T07:38:58;18.48;;;10.85;;
72728;SDS011;60843;52.062;4.508;2023-09-08T07:43:51;19.30;;;11.40;;
72728;SDS011;60843;52.062;4.508;2023-09-08T07:46:17;19.90;;;11.98;;
72728;SDS011;60843;52.062;4.508;2023-09-08T07:48:42;19.52;;;11.57;;
72728;SDS011;60843;52.062;4.508;2023-09-08T07:53:36;17.35;;;10.80;;
72728;SDS011;60843;52.062;4.508;2023-09-08T07:58:57;22.23;;;11.10;;
72728;SDS011;60843;52.062;4.508;2023-09-08T08:02:00;18.23;;;10.80;;
72728;SDS011;60843;52.062;4.508;2023-09-08T08:04:26;19.27;;;10.98;;
72728;SDS011;60843;52.062;4.508;2023-09-08T08:06:51;18.40;;;11.50;;
72728;SDS011;60843;52.062;4.508;2023-09-08T08:09:17;22.88;;;12.15;;
72728;SDS011;60843;52.062;4.508;2023-09-08T08:11:42;19.50;;;11.20;;
72728;SDS011;60843;52.062;4.508;2023-09-08T08:14:22;18.20;;;10.73;;
72728;SDS011;60843;52.062;4.508;2023-09-08T08:21:39;19.63;;;11.50;;
72728;SDS011;60843;52.062;4.508;2023-09-08T08:24:07;24.35;;;11.50;;
72728;SDS011;60843;52.062;4.508;2023-09-08T08:26:32;17.27;;;11.30;;
72728;SDS011;60843;52.062;4.508;2023-09-08T08:28:58;16.30;;;11.25;;
72728;SDS011;60843;52.062;4.508;2023-09-08T08:31:24;18.92;;;11.40;;
72728;SDS011;60843;52.062;4.508;2023-09-08T08:33:49;18.00;;;10.48;;
72728;SDS011;60843;52.062;4.508;2023-09-08T08:36:15;17.80;;;11.40;;
72728;SDS011;60843;52.062;4.508;2023-09-08T08:38:40;16.88;;;10.80;;
72728;SDS011;60843;52.062;4.508;2023-09-08T08:41:06;20.48;;;10.82;;
72728;SDS011;60843;52.062;4.508;2023-09-08T08:43:32;18.38;;;11.18;;
72728;SDS011;60843;52.062;4.508;2023-09-08T08:45:58;19.30;;;11.30;;
72728;SDS011;60843;52.062;4.508;2023-09-08T08:48:23;20.02;;;11.35;;
72728;SDS011;60843;52.062;4.508;2023-09-08T08:50:50;19.13;;;11.27;;
72728;SDS011;60843;52.062;4.508;2023-09-08T08:53:17;16.10;;;10.15;;
72728;SDS011;60843;52.062;4.508;2023-09-08T08:55:43;20.63;;;11.52;;
72728;SDS011;60843;52.062;4.508;2023-09-08T08:58:09;22.63;;;11.57;;
72728;SDS011;60843;52.062;4.508;2023-09-08T09:00:39;16.92;;;9.95;;
72728;SDS011;60843;52.062;4.508;2023-09-08T09:03:05;17.00;;;10.63;;
72728;SDS011;60843;52.062;4.508;2023-09-08T09:05:34;18.63;;;10.63;;
72728;SDS011;60843;52.062;4.508;2023-09-08T09:08:01;16.95;;;11.38;;
72728;SDS011;60843;52.062;4.508;2023-09-08T09:10:29;17.38;;;10.95;;
72728;SDS011;60843;52.062;4.508;2023-09-08T09:12:56;17.15;;;11.00;;
72728;SDS011;60843;52.062;4.508;2023-09-08T09:15:28;16.90;;;9.30;;
72728;SDS011;60843;52.062;4.508;2023-09-08T09:18:01;19.02;;;9.18;;
72728;SDS011;60843;52.062;4.508;2023-09-08T09:20:30;14.73;;;9.80;;
72728;SDS011;60843;52.062;4.508;2023-09-08T09:22:56;16.38;;;10.05;;
72728;SDS011;60843;52.062;4.508;2023-09-08T09:25:23;15.10;;;9.57;;
72728;SDS011;60843;52.062;4.508;2023-09-08T09:27:57;18.08;;;9.18;;
72728;SDS011;60843;52.062;4.508;2023-09-08T09:30:24;14.82;;;8.85;;
72728;SDS011;60843;52.062;4.508;2023-09-08T09:33:03;12.85;;;8.30;;
72728;SDS011;60843;52.062;4.508;2023-09-08T09:35:39;14.60;;;7.45;;
72728;SDS011;60843;52.062;4.508;2023-09-08T09:38:06;11.07;;;7.55;;
72728;SDS011;60843;52.062;4.508;2023-09-08T09:40:33;11.20;;;7.15;;
72728;SDS011;60843;52.062;4.508;2023-09-08T09:42:58;16.45;;;9.00;;
72728;SDS011;60843;52.062;4.508;2023-09-08T09:45:25;12.93;;;8.02;;
72728;SDS011;60843;52.062;4.508;2023-09-08T09:47:51;14.70;;;8.07;;
72728;SDS011;60843;52.062;4.508;2023-09-08T09:50:27;13.70;;;7.28;;
72728;SDS011;60843;52.062;4.508;2023-09-08T09:55:23;12.93;;;7.45;;
72728;SDS011;60843;52.062;4.508;2023-09-08T09:57:58;10.45;;;7.10;;
72728;SDS011;60843;52.062;4.508;2023-09-08T10:00:25;13.05;;;7.15;;
72728;SDS011;60843;52.062;4.508;2023-09-08T10:02:54;10.50;;;7.63;;
72728;SDS011;60843;52.062;4.508;2023-09-08T10:05:20;13.60;;;7.40;;
72728;SDS011;60843;52.062;4.508;2023-09-08T10:07:46;9.88;;;7.18;;
72728;SDS011;60843;52.062;4.508;2023-09-08T10:10:13;8.18;;;5.15;;
72728;SDS011;60843;52.062;4.508;2023-09-08T10:12:40;11.75;;;5.18;;
72728;SDS011;60843;52.062;4.508;2023-09-08T10:15:11;12.00;;;5.93;;
72728;SDS011;60843;52.062;4.508;2023-09-08T10:17:37;11.07;;;6.75;;
72728;SDS011;60843;52.062;4.508;2023-09-08T10:20:06;9.98;;;5.28;;
72728;SDS011;60843;52.062;4.508;2023-09-08T10:22:36;7.68;;;5.35;;
72728;SDS011;60843;52.062;4.508;2023-09-08T10:25:05;8.02;;;5.35;;
72728;SDS011;60843;52.062;4.508;2023-09-08T10:29:58;9.90;;;5.32;;
72728;SDS011;60843;52.062;4.508;2023-09-08T10:32:25;8.45;;;5.38;;
72728;SDS011;60843;52.062;4.508;2023-09-08T10:34:51;9.35;;;4.82;;
72728;SDS011;60843;52.062;4.508;2023-09-08T10:37:22;7.97;;;4.28;;
72728;SDS011;60843;52.062;4.508;2023-09-08T10:39:50;9.23;;;5.75;;
72728;SDS011;60843;52.062;4.508;2023-09-08T10:47:18;8.60;;;5.53;;
72728;SDS011;60843;52.062;4.508;2023-09-08T10:50:04;7.32;;;4.78;;
72728;SDS011;60843;52.062;4.508;2023-09-08T10:52:30;10.73;;;5.03;;
72728;SDS011;60843;52.062;4.508;2023-09-08T10:54:58;6.50;;;4.97;;
72728;SDS011;60843;52.062;4.508;2023-09-08T10:57:24;7.93;;;4.78;;
72728;SDS011;60843;52.062;4.508;2023-09-08T10:59:51;9.55;;;4.88;;
72728;SDS011;60843;52.062;4.508;2023-09-08T11:05:21;6.82;;;4.82;;
72728;SDS011;60843;52.062;4.508;2023-09-08T11:07:47;9.00;;;5.00;;
72728;SDS011;60843;52.062;4.508;2023-09-08T11:10:17;7.65;;;4.80;;
72728;SDS011;60843;52.062;4.508;2023-09-08T11:12:43;9.68;;;4.53;;
72728;SDS011;60843;52.062;4.508;2023-09-08T11:15:09;14.63;;;6.13;;
72728;SDS011;60843;52.062;4.508;2023-09-08T11:17:35;11.27;;;5.43;;
72728;SDS011;60843;52.062;4.508;2023-09-08T11:20:04;8.60;;;5.55;;
72728;SDS011;60843;52.062;4.508;2023-09-08T11:22:34;6.93;;;5.00;;
72728;SDS011;60843;52.062;4.508;2023-09-08T11:25:05;8.65;;;5.63;;
72728;SDS011;60843;52.062;4.508;2023-09-08T11:27:32;9.00;;;5.50;;
72728;SDS011;60843;52.062;4.508;2023-09-08T11:29:58;11.85;;;5.38;;
72728;SDS011;60843;52.062;4.508;2023-09-08T11:32:24;6.53;;;4.15;;
72728;SDS011;60843;52.062;4.508;2023-09-08T11:34:50;7.85;;;4.50;;
72728;SDS011;60843;52.062;4.508;2023-09-08T11:37:17;7.25;;;4.35;;
72728;SDS011;60843;52.062;4.508;2023-09-08T11:42:10;7.28;;;3.90;;
72728;SDS011;60843;52.062;4.508;2023-09-08T11:44:37;5.90;;;3.72;;
72728;SDS011;60843;52.062;4.508;2023-09-08T11:47:03;6.32;;;3.63;;
72728;SDS011;60843;52.062;4.508;2023-09-08T11:49:36;5.47;;;3.55;;
72728;SDS011;60843;52.062;4.508;2023-09-08T11:52:03;6.95;;;4.53;;
72728;SDS011;60843;52.062;4.508;2023-09-08T11:54:33;8.80;;;3.97;;
72728;SDS011;60843;52.062;4.508;2023-09-08T11:57:00;6.30;;;3.40;;
72728;SDS011;60843;52.062;4.508;2023-09-08T11:59:30;5.72;;;3.75;;
72728;SDS011;60843;52.062;4.508;2023-09-08T12:01:58;8.27;;;4.45;;
72728;SDS011;60843;52.062;4.508;2023-09-08T12:04:27;8.20;;;4.50;;
72728;SDS011;60843;52.062;4.508;2023-09-08T12:06:56;8.25;;;4.90;;
72728;SDS011;60843;52.062;4.508;2023-09-08T12:09:22;9.88;;;5.32;;
72728;SDS011;60843;52.062;4.508;2023-09-08T12:11:47;5.85;;;3.80;;
72728;SDS011;60843;52.062;4.508;2023-09-08T12:14:15;6.43;;;3.88;;
72728;SDS011;60843;52.062;4.508;2023-09-08T12:19:30;10.10;;;4.65;;
72728;SDS011;60843;52.062;4.508;2023-09-08T12:21:56;5.78;;;4.00;;
72728;SDS011;60843;52.062;4.508;2023-09-08T12:27:24;6.78;;;3.85;;
72728;SDS011;60843;52.062;4.508;2023-09-08T12:29:54;7.75;;;4.03;;
72728;SDS011;60843;52.062;4.508;2023-09-08T12:32:21;6.05;;;3.40;;
72728;SDS011;60843;52.062;4.508;2023-09-08T12:34:47;9.27;;;3.67;;
72728;SDS011;60843;52.062;4.508;2023-09-08T12:37:13;5.53;;;3.63;;
72728;SDS011;60843;52.062;4.508;2023-09-08T12:39:38;7.80;;;3.70;;
72728;SDS011;60843;52.062;4.508;2023-09-08T12:42:04;6.97;;;4.13;;
72728;SDS011;60843;52.062;4.508;2023-09-08T12:44:30;6.00;;;3.45;;
72728;SDS011;60843;52.062;4.508;2023-09-08T12:46:56;6.00;;;3.33;;
72728;SDS011;60843;52.062;4.508;2023-09-08T12:49:21;6.65;;;3.65;;
72728;SDS011;60843;52.062;4.508;2023-09-08T12:51:47;6.07;;;4.45;;
72728;SDS011;60843;52.062;4.508;2023-09-08T12:54:12;7.95;;;4.47;;
72728;SDS011;60843;52.062;4.508;2023-09-08T12:59:57;10.80;;;3.72;;
72728;SDS011;60843;52.062;4.508;2023-09-08T13:02:22;7.75;;;4.40;;
72728;SDS011;60843;52.062;4.508;2023-09-08T13:04:48;10.32;;;4.50;;
72728;SDS011;60843;52.062;4.508;2023-09-08T13:07:16;7.70;;;4.22;;
72728;SDS011;60843;52.062;4.508;2023-09-08T13:09:42;5.25;;;3.58;;
72728;SDS011;60843;52.062;4.508;2023-09-08T13:12:08;6.55;;;3.60;;
72728;SDS011;60843;52.062;4.508;2023-09-08T13:14:34;6.43;;;4.22;;
72728;SDS011;60843;52.062;4.508;2023-09-08T13:17:00;5.25;;;3.30;;
72728;SDS011;60843;52.062;4.508;2023-09-08T13:19:26;5.20;;;3.67;;
72728;SDS011;60843;52.062;4.508;2023-09-08T13:21:52;6.15;;;4.18;;
72728;SDS011;60843;52.062;4.508;2023-09-08T13:24:17;5.35;;;3.58;;
72728;SDS011;60843;52.062;4.508;2023-09-08T13:29:10;6.30;;;3.30;;
72728;SDS011;60843;52.062;4.508;2023-09-08T13:31:35;8.32;;;3.53;;
72728;SDS011;60843;52.062;4.508;2023-09-08T13:34:01;5.07;;;3.55;;
72728;SDS011;60843;52.062;4.508;2023-09-08T13:36:30;5.03;;;3.05;;
72728;SDS011;60843;52.062;4.508;2023-09-08T13:38:56;5.90;;;3.72;;
72728;SDS011;60843;52.062;4.508;2023-09-08T13:41:21;5.95;;;3.70;;
72728;SDS011;60843;52.062;4.508;2023-09-08T13:43:47;5.13;;;4.22;;
72728;SDS011;60843;52.062;4.508;2023-09-08T13:46:13;5.30;;;3.92;;
72728;SDS011;60843;52.062;4.508;2023-09-08T13:48:38;8.75;;;4.18;;
72728;SDS011;60843;52.062;4.508;2023-09-08T13:51:04;7.38;;;4.20;;
72728;SDS011;60843;52.062;4.508;2023-09-08T13:53:30;12.23;;;4.10;;
72728;SDS011;60843;52.062;4.508;2023-09-08T13:55:56;6.22;;;4.00;;
72728;SDS011;60843;52.062;4.508;2023-09-08T13:58:22;8.80;;;4.57;;
72728;SDS011;60843;52.062;4.508;2023-09-08T14:00:47;5.68;;;4.10;;
72728;SDS011;60843;52.062;4.508;2023-09-08T14:03:19;7.28;;;4.00;;
72728;SDS011;60843;52.062;4.508;2023-09-08T14:05:44;5.15;;;3.78;;
72728;SDS011;60843;52.062;4.508;2023-09-08T14:08:10;6.63;;;3.53;;
72728;SDS011;60843;52.062;4.508;2023-09-08T14:10:35;8.10;;;4.10;;
72728;SDS011;60843;52.062;4.508;2023-09-08T14:13:03;6.43;;;3.85;;
72728;SDS011;60843;52.062;4.508;2023-09-08T14:15:29;4.82;;;3.47;;
72728;SDS011;60843;52.062;4.508;2023-09-08T14:17:55;7.07;;;3.97;;
72728;SDS011;60843;52.062;4.508;2023-09-08T14:20:21;4.68;;;3.38;;
72728;SDS011;60843;52.062;4.508;2023-09-08T14:22:47;6.72;;;4.25;;
72728;SDS011;60843;52.062;4.508;2023-09-08T14:25:12;7.25;;;4.00;;
72728;SDS011;60843;52.062;4.508;2023-09-08T14:27:38;6.63;;;4.30;;
72728;SDS011;60843;52.062;4.508;2023-09-08T14:30:04;6.88;;;4.00;;
72728;SDS011;60843;52.062;4.508;2023-09-08T14:32:31;8.95;;;4.35;;
72728;SDS011;60843;52.062;4.508;2023-09-08T14:34:57;7.53;;;4.07;;
72728;SDS011;60843;52.062;4.508;2023-09-08T14:37:22;5.10;;;3.90;;
72728;SDS011;60843;52.062;4.508;2023-09-08T14:39:48;7.75;;;3.78;;
72728;SDS011;60843;52.062;4.508;2023-09-08T14:42:14;6.35;;;4.30;;
72728;SDS011;60843;52.062;4.508;2023-09-08T14:44:40;5.22;;;4.20;;
72728;SDS011;60843;52.062;4.508;2023-09-08T14:47:06;8.13;;;3.95;;
72728;SDS011;60843;52.062;4.508;2023-09-08T14:49:32;5.32;;;3.70;;
72728;SDS011;60843;52.062;4.508;2023-09-08T14:51:58;6.22;;;3.47;;
72728;SDS011;60843;52.062;4.508;2023-09-08T14:54:24;7.85;;;3.60;;
72728;SDS011;60843;52.062;4.508;2023-09-08T14:56:51;5.80;;;4.03;;
72728;SDS011;60843;52.062;4.508;2023-09-08T14:59:17;4.82;;;3.55;;
72728;SDS011;60843;52.062;4.508;2023-09-08T15:01:42;5.10;;;3.50;;
72728;SDS011;60843;52.062;4.508;2023-09-08T15:04:09;5.57;;;3.70;;
72728;SDS011;60843;52.062;4.508;2023-09-08T15:06:36;5.07;;;3.45;;
72728;SDS011;60843;52.062;4.508;2023-09-08T15:09:01;5.32;;;3.33;;
72728;SDS011;60843;52.062;4.508;2023-09-08T15:11:27;6.63;;;4.10;;
72728;SDS011;60843;52.062;4.508;2023-09-08T15:13:53;6.93;;;4.25;;
72728;SDS011;60843;52.062;4.508;2023-09-08T15:16:20;7.13;;;3.85;;
72728;SDS011;60843;52.062;4.508;2023-09-08T15:18:49;6.25;;;3.92;;